createdAt,value
2019-03-06T00:00:24.043Z,99785
2019-03-06T00:05:24.079Z,99798
2019-03-06T00:10:24.034Z,99796
2019-03-06T00:15:24.006Z,99801
2019-03-06T00:20:24.041Z,99795
2019-03-06T00:25:24.055Z,99789
2019-03-06T00:30:24.044Z,99787
2019-03-06T00:35:24.026Z,99791
2019-03-06T00:40:24.013Z,99804
2019-03-06T00:45:24.043Z,99795
2019-03-06T00:50:24.041Z,99804
2019-03-06T00:55:24.053Z,99806
2019-03-06T01:00:24.031Z,99807
2019-03-06T01:05:24.076Z,99801
2019-03-06T01:10:24.010Z,99796
2019-03-06T01:15:24.050Z,99800
2019-03-06T01:20:24.049Z,99796
2019-03-06T01:25:24.036Z,99790
2019-03-06T01:30:24.047Z,99798
2019-03-06T01:35:24.046Z,99801
2019-03-06T01:40:24.000Z,99804
2019-03-06T01:45:24.006Z,99808
2019-03-06T01:50:24.053Z,99797
2019-03-06T01:55:24.045Z,99803
2019-03-06T02:00:24.033Z,99801
2019-03-06T02:05:24.089Z,99797
2019-03-06T02:10:24.050Z,99799
2019-03-06T02:15:24.048Z,99797
2019-03-06T02:20:24.077Z,99805
2019-03-06T02:25:24.031Z,99791
2019-03-06T02:30:24.032Z,99806
2019-03-06T02:35:24.050Z,99805
2019-03-06T02:40:24.008Z,99801
2019-03-06T02:45:24.081Z,99788
2019-03-06T02:50:24.036Z,99785
2019-03-06T02:55:24.097Z,99788
2019-03-06T03:00:24.011Z,99766
2019-03-06T03:05:24.064Z,99794
2019-03-06T03:10:24.060Z,99794
2019-03-06T03:15:24.044Z,99788
2019-03-06T03:20:24.036Z,99781
2019-03-06T03:25:24.112Z,99782
2019-03-06T03:30:24.069Z,99783
2019-03-06T03:35:24.060Z,99786
2019-03-06T03:40:24.057Z,99775
2019-03-06T03:45:24.036Z,99784
2019-03-06T03:50:24.090Z,99782
2019-03-06T03:55:24.049Z,99767
2019-03-06T04:00:24.057Z,99765
2019-03-06T04:05:24.075Z,99772
2019-03-06T04:10:24.015Z,99772
2019-03-06T04:15:24.045Z,99770
2019-03-06T04:20:24.019Z,99762
2019-03-06T04:25:24.072Z,99749
2019-03-06T04:30:24.018Z,99752
2019-03-06T04:35:24.044Z,99755
2019-03-06T04:40:24.052Z,99761
2019-03-06T04:45:24.072Z,99764
2019-03-06T04:50:24.054Z,99764
2019-03-06T04:55:24.058Z,99759
2019-03-06T05:00:24.090Z,99765
2019-03-06T05:05:24.044Z,99773
2019-03-06T05:10:24.061Z,99770
2019-03-06T05:15:24.097Z,99774
2019-03-06T05:20:24.039Z,99790
2019-03-06T05:25:24.056Z,99773
2019-03-06T05:30:24.050Z,99775
2019-03-06T05:35:24.051Z,99769
2019-03-06T05:40:24.014Z,99766
2019-03-06T05:45:24.053Z,99758
2019-03-06T05:50:24.049Z,99753
2019-03-06T05:55:24.091Z,99755
2019-03-06T06:00:24.072Z,99736
2019-03-06T06:05:24.049Z,99737
2019-03-06T06:10:24.065Z,99723
2019-03-06T06:15:24.023Z,99726
2019-03-06T06:20:24.064Z,99719
2019-03-06T06:25:24.079Z,99730
2019-03-06T06:30:24.062Z,99720
2019-03-06T06:35:24.060Z,99707
2019-03-06T06:40:24.054Z,99720
2019-03-06T06:45:24.064Z,99714
2019-03-06T06:50:24.064Z,99714
2019-03-06T06:55:24.070Z,99685
2019-03-06T07:00:24.063Z,99681
2019-03-06T07:05:24.043Z,99692
2019-03-06T07:10:24.073Z,99688
2019-03-06T07:15:24.050Z,99686
2019-03-06T07:20:24.106Z,99676
2019-03-06T07:25:24.098Z,99668
2019-03-06T07:30:24.061Z,99659
2019-03-06T07:35:24.093Z,99648
2019-03-06T07:40:24.060Z,99656
2019-03-06T07:45:24.065Z,99651
2019-03-06T07:50:24.030Z,99645
2019-03-06T07:55:24.076Z,99635
2019-03-06T08:00:24.073Z,99625
2019-03-06T08:05:24.032Z,99611
2019-03-06T08:10:24.064Z,99615
2019-03-06T08:15:24.060Z,99607
2019-03-06T08:20:24.070Z,99589
2019-03-06T08:25:24.074Z,99598
2019-03-06T08:30:24.069Z,99588
2019-03-06T08:35:24.074Z,99591
2019-03-06T08:40:24.060Z,99588
2019-03-06T08:45:24.066Z,99588
2019-03-06T08:50:24.111Z,99587
2019-03-06T08:55:24.061Z,99585
2019-03-06T09:00:24.075Z,99567
2019-03-06T09:05:24.076Z,99574
2019-03-06T09:10:24.068Z,99572
2019-03-06T09:15:24.035Z,99565
2019-03-06T09:20:24.069Z,99550
2019-03-06T09:25:24.074Z,99549
2019-03-06T09:30:24.083Z,99546
2019-03-06T09:35:24.034Z,99552
2019-03-06T09:40:24.072Z,99555
2019-03-06T09:45:24.064Z,99551
2019-03-06T09:50:24.059Z,99540
2019-03-06T09:55:24.080Z,99541
2019-03-06T10:00:24.070Z,99523
2019-03-06T10:05:24.063Z,99512
2019-03-06T10:10:24.083Z,99517
2019-03-06T10:15:24.042Z,99510
2019-03-06T10:20:25.231Z,99518
2019-03-06T10:25:29.938Z,99498
2019-03-06T10:30:24.121Z,99488
2019-03-06T10:35:24.042Z,99486
2019-03-06T10:40:24.079Z,99490
2019-03-06T10:45:24.104Z,99474
2019-03-06T10:50:26.697Z,99481
2019-03-06T10:55:24.080Z,99487
2019-03-06T11:00:24.082Z,99492
2019-03-06T11:05:24.074Z,99491
2019-03-06T11:10:24.428Z,99489
2019-03-06T11:15:24.110Z,99473
2019-03-06T11:20:24.067Z,99475
2019-03-06T11:25:24.085Z,99460
2019-03-06T11:30:24.042Z,99449
2019-03-06T11:35:24.089Z,99443
2019-03-06T11:40:24.086Z,99447
2019-03-06T11:45:24.088Z,99445
2019-03-06T11:50:24.094Z,99436
2019-03-06T11:55:24.051Z,99433
2019-03-06T12:00:24.042Z,99431
2019-03-06T12:05:24.132Z,99411
2019-03-06T12:10:24.079Z,99404
2019-03-06T12:15:24.073Z,99372
2019-03-06T12:20:24.072Z,99363
2019-03-06T12:25:24.083Z,99357
2019-03-06T12:30:24.091Z,99340
2019-03-06T12:35:24.092Z,99341
2019-03-06T12:40:24.080Z,99328
2019-03-06T12:45:24.070Z,99326
2019-03-06T12:50:24.104Z,99313
2019-03-06T12:55:24.052Z,99306
2019-03-06T13:00:24.083Z,99304
2019-03-06T13:05:24.090Z,99285
2019-03-06T13:10:24.105Z,99267
2019-03-06T13:15:24.047Z,99251
2019-03-06T13:20:24.141Z,99241
2019-03-06T13:25:24.096Z,99203
2019-03-06T13:30:24.083Z,99198
2019-03-06T13:35:24.125Z,99188
2019-03-06T13:40:24.091Z,99187
2019-03-06T13:45:24.146Z,99161
2019-03-06T13:50:24.616Z,99156
2019-03-06T13:55:24.112Z,99147
2019-03-06T14:00:24.092Z,99138
2019-03-06T14:05:24.092Z,99115
2019-03-06T14:10:24.090Z,99116
2019-03-06T14:15:24.161Z,99105
2019-03-06T14:20:24.101Z,99091
2019-03-06T14:25:24.087Z,99070
2019-03-06T14:30:24.102Z,99065
2019-03-06T14:35:24.097Z,99068
2019-03-06T14:40:24.087Z,99054
2019-03-06T14:45:24.084Z,99055
2019-03-06T14:50:24.099Z,99061
2019-03-06T14:55:24.092Z,99038
2019-03-06T15:00:24.097Z,99048
2019-03-06T15:05:24.050Z,99026
2019-03-06T15:10:24.097Z,99022
2019-03-06T15:15:24.093Z,99006
2019-03-06T15:20:24.108Z,99012
2019-03-06T15:25:24.110Z,99004
2019-03-06T15:30:24.133Z,98976
2019-03-06T15:35:24.107Z,98973
2019-03-06T15:40:24.124Z,98967
2019-03-06T15:45:24.162Z,98965
2019-03-06T15:50:24.101Z,98949
2019-03-06T15:55:24.070Z,98955
2019-03-06T16:00:24.103Z,98951
2019-03-06T16:05:24.101Z,98945
2019-03-06T16:10:24.095Z,98940
2019-03-06T16:15:24.111Z,98922
2019-03-06T16:20:24.092Z,98923
2019-03-06T16:25:24.115Z,98935
2019-03-06T16:30:24.116Z,98937
2019-03-06T16:35:24.092Z,98921
2019-03-06T16:40:24.069Z,98912
2019-03-06T16:45:24.112Z,98912
2019-03-06T16:50:24.066Z,98896
2019-03-06T16:55:24.106Z,98892
2019-03-06T17:00:24.108Z,98892
2019-03-06T17:05:24.112Z,98879
2019-03-06T17:10:24.109Z,98886
2019-03-06T17:15:24.107Z,98882
2019-03-06T17:20:24.101Z,98867
2019-03-06T17:25:25.918Z,98849
2019-03-06T17:30:24.123Z,98849
2019-03-06T17:35:24.109Z,98846
2019-03-06T17:40:24.099Z,98850
2019-03-06T17:45:24.122Z,98832
2019-03-06T17:50:24.115Z,98830
2019-03-06T17:55:24.102Z,98812
2019-03-06T18:00:24.094Z,98821
2019-03-06T18:05:24.116Z,98807
2019-03-06T18:10:24.100Z,98814
2019-03-06T18:15:24.168Z,98797
2019-03-06T18:20:24.109Z,98799
2019-03-06T18:25:24.068Z,98786
2019-03-06T18:30:24.184Z,98774
2019-03-06T18:35:24.083Z,98783
2019-03-06T18:40:24.110Z,98778
2019-03-06T18:45:24.119Z,98778
2019-03-06T18:50:24.117Z,98767
2019-03-06T18:55:24.121Z,98765
2019-03-06T19:00:24.111Z,98776
2019-03-06T19:05:24.094Z,98766
2019-03-06T19:10:24.122Z,98763
2019-03-06T19:15:24.126Z,98750
2019-03-06T19:20:24.152Z,98745
2019-03-06T19:25:24.145Z,98742
2019-03-06T19:30:24.129Z,98737
2019-03-06T19:35:24.122Z,98730
2019-03-06T19:40:24.123Z,98724
2019-03-06T19:45:24.075Z,98711
2019-03-06T19:50:25.543Z,98699
2019-03-06T19:55:24.118Z,98699
2019-03-06T20:00:24.102Z,98693
2019-03-06T20:05:24.136Z,98690
2019-03-06T20:10:24.118Z,98686
2019-03-06T20:15:24.110Z,98681
2019-03-06T20:20:24.127Z,98679
2019-03-06T20:25:24.125Z,98680
2019-03-06T20:30:24.156Z,98676
2019-03-06T20:35:24.109Z,98669
2019-03-06T20:40:24.118Z,98670
2019-03-06T20:45:24.110Z,98677
2019-03-06T20:50:24.117Z,98673
2019-03-06T20:55:24.114Z,98661
2019-03-06T21:00:24.120Z,98664
2019-03-06T21:05:24.112Z,98682
2019-03-06T21:10:24.111Z,98687
2019-03-06T21:15:24.119Z,98662
2019-03-06T21:20:24.121Z,98671
2019-03-06T21:25:24.124Z,98639
2019-03-06T21:30:24.187Z,98633
2019-03-06T21:35:24.128Z,98623
2019-03-06T21:40:24.121Z,98619
2019-03-06T21:45:24.125Z,98617
2019-03-06T21:50:24.136Z,98620
2019-03-06T21:55:24.127Z,98618
2019-03-06T22:00:24.131Z,98618
2019-03-06T22:05:24.143Z,98599
2019-03-06T22:10:24.092Z,98600
2019-03-06T22:15:24.130Z,98592
2019-03-06T22:20:24.128Z,98588
2019-03-06T22:25:24.141Z,98561
2019-03-06T22:30:24.088Z,98545
2019-03-06T22:35:24.123Z,98558
2019-03-06T22:40:24.134Z,98547
2019-03-06T22:45:24.128Z,98546
2019-03-06T22:50:24.142Z,98547
2019-03-06T22:55:24.123Z,98546
2019-03-06T23:00:24.122Z,98543
2019-03-06T23:05:24.139Z,98530
2019-03-06T23:10:24.147Z,98525
2019-03-06T23:15:24.131Z,98528
2019-03-06T23:20:24.127Z,98530
2019-03-06T23:25:24.148Z,98516
2019-03-06T23:30:24.134Z,98522
2019-03-06T23:35:24.129Z,98516
2019-03-06T23:40:24.130Z,98512
2019-03-06T23:45:24.129Z,98508
2019-03-06T23:50:24.133Z,98501
2019-03-06T23:55:24.100Z,98496
